Time;durP1;ratioP1;P1;durP2;ratioP2;P2;SDS_P1;SDS_P2;PMS_P1;PMS_P2;Temp;Humidity;BMP_temperature;BMP_pressure;BME280_temperature;BME280_humidity;BME280_pressure;Samples;Min_cycle;Max_cycle;Signal;HPM_P1;HPM_P2
2022/03/31 00:02:04;;;;;;;17.98;8.38;;;;;;;15.61;48.14;98741.22;6273773;22;20022;-85
2022/03/31 00:04:30;;;;;;;16.25;7.32;;;;;;;14.97;47.85;98630.28;6275733;22;20027;-85
2022/03/31 00:06:55;;;;;;;20.42;8.18;;;;;;;15.39;47.83;98710.81;6275809;22;20076;-85
2022/03/31 00:09:20;;;;;;;20.40;7.85;;;;;;;14.56;47.96;98565.47;6276232;22;19995;-86
2022/03/31 00:11:46;;;;;;;17.75;7.97;;;;;;;15.08;47.91;98664.88;6275699;22;20019;-86
2022/03/31 00:14:11;;;;;;;20.13;7.78;;;;;;;14.85;47.72;98622.25;6275757;22;19995;-86
2022/03/31 00:16:37;;;;;;;18.23;7.22;;;;;;;15.07;47.82;98678.41;6274165;22;20433;-86
2022/03/31 00:19:02;;;;;;;16.90;7.82;;;;;;;15.12;47.57;98641.28;6273935;22;20008;-85
2022/03/31 00:21:28;;;;;;;18.27;7.93;;;;;;;15.01;47.37;98611.00;6273997;22;19999;-86
2022/03/31 00:23:53;;;;;;;17.83;7.88;;;;;;;15.30;47.53;98651.84;6274032;22;19995;-85
2022/03/31 00:26:19;;;;;;;19.05;7.40;;;;;;;15.13;47.15;98622.44;6274088;22;20362;-85
2022/03/31 00:28:44;;;;;;;19.80;8.40;;;;;;;15.17;47.38;98626.28;6274263;22;20071;-85
2022/03/31 00:31:10;;;;;;;16.50;7.47;;;;;;;15.42;47.45;98687.22;6277051;22;20455;-85
2022/03/31 00:33:35;;;;;;;17.30;7.57;;;;;;;14.87;47.47;98601.63;6276935;22;20007;-85
2022/03/31 00:36:01;;;;;;;22.20;8.63;;;;;;;15.07;47.21;98633.19;6274888;22;20004;-85
2022/03/31 00:38:26;;;;;;;18.50;8.40;;;;;;;15.56;47.31;98709.09;6274087;22;20087;-85
2022/03/31 00:40:51;;;;;;;16.05;8.43;;;;;;;15.46;47.41;98698.22;6273671;22;20000;-86
2022/03/31 00:43:17;;;;;;;15.48;7.63;;;;;;;14.43;47.58;98518.69;6275301;22;19999;-86
2022/03/31 00:45:50;;;;;;;18.33;7.93;;;;;;;15.66;47.49;98716.56;6275269;22;20330;-85
2022/03/31 00:48:19;;;;;;;17.85;7.53;;;;;;;15.57;47.39;98700.91;6273571;22;20003;-86
2022/03/31 00:50:45;;;;;;;25.50;9.13;;;;;;;15.65;47.49;98710.44;6273528;22;20338;-86
2022/03/31 00:53:11;;;;;;;16.48;7.82;;;;;;;15.66;47.30;98709.41;6275485;22;20030;-85
2022/03/31 00:55:37;;;;;;;19.70;7.90;;;;;;;15.36;47.24;98666.88;6275186;22;19995;-85
2022/03/31 00:58:04;;;;;;;13.10;7.30;;;;;;;15.08;47.48;98627.66;6275112;22;20433;-86
2022/03/31 01:00:30;;;;;;;16.35;7.63;;;;;;;15.24;47.57;98648.25;6274842;22;20024;-86
2022/03/31 01:02:55;;;;;;;20.75;8.00;;;;;;;14.80;47.91;98574.31;6273363;22;20488;-85
2022/03/31 01:05:21;;;;;;;13.20;7.43;;;;;;;15.22;48.02;98666.28;6273720;22;20004;-86
2022/03/31 01:07:46;;;;;;;17.90;9.02;;;;;;;15.09;47.96;98634.59;6275264;22;19999;-85
2022/03/31 01:10:13;;;;;;;23.67;8.23;;;;;;;15.63;48.50;98704.53;6275207;22;19995;-85
2022/03/31 01:12:40;;;;;;;16.25;8.18;;;;;;;15.67;48.37;98700.38;6273568;22;20003;-85
2022/03/31 01:15:08;;;;;;;18.70;8.32;;;;;;;15.68;48.43;98707.31;6273614;22;20408;-85
2022/03/31 01:17:39;;;;;;;17.85;8.68;;;;;;;14.78;48.69;98579.84;6273425;22;20007;-85
2022/03/31 01:20:08;;;;;;;22.75;9.65;;;;;;;14.82;49.17;98596.16;6273380;22;20011;-85
2022/03/31 01:22:34;;;;;;;16.45;8.90;;;;;;;15.32;49.46;98656.94;6273343;22;20350;-86
2022/03/31 01:25:02;;;;;;;18.45;8.00;;;;;;;15.58;49.72;98702.53;6283290;22;20035;-85
2022/03/31 01:27:28;;;;;;;17.75;8.45;;;;;;;15.60;49.94;98704.16;6288399;22;20015;-85
2022/03/31 01:29:53;;;;;;;25.63;9.18;;;;;;;15.59;49.97;98706.00;6284769;22;20456;-85
2022/03/31 01:32:20;;;;;;;20.65;8.85;;;;;;;14.61;49.78;98545.16;6278591;22;20002;-86
2022/03/31 01:34:46;;;;;;;20.38;9.35;;;;;;;15.37;49.95;98687.13;6273240;22;20000;-85
2022/03/31 01:37:13;;;;;;;17.80;8.70;;;;;;;15.13;50.00;98653.56;6274849;22;20002;-86
2022/03/31 01:39:39;;;;;;;21.58;9.18;;;;;;;15.24;50.77;98680.16;6274492;22;20007;-86
2022/03/31 01:42:05;;;;;;;16.63;9.00;;;;;;;14.89;51.30;98629.59;6272898;22;19999;-86
2022/03/31 01:44:31;;;;;;;19.52;10.07;;;;;;;15.20;51.23;98673.69;6273248;22;20026;-86
2022/03/31 01:46:57;;;;;;;19.98;10.40;;;;;;;15.43;52.06;98688.03;6273177;22;20003;-85
2022/03/31 01:49:22;;;;;;;18.63;10.43;;;;;;;14.80;52.30;98608.84;6274462;22;20053;-86
2022/03/31 01:51:48;;;;;;;17.67;10.38;;;;;;;14.76;52.47;98597.06;6273129;22;20357;-86
2022/03/31 01:54:13;;;;;;;18.13;10.32;;;;;;;14.85;52.64;98601.81;6273020;22;20003;-85
2022/03/31 01:56:42;;;;;;;21.73;11.05;;;;;;;15.43;53.65;98698.69;6272932;22;20003;-86
2022/03/31 01:59:08;;;;;;;27.00;11.25;;;;;;;14.88;53.56;98600.56;6272808;22;20011;-86
2022/03/31 02:01:34;;;;;;;27.48;12.27;;;;;;;14.85;54.00;98595.69;6273681;22;20023;-86
2022/03/31 02:03:59;;;;;;;24.88;11.20;;;;;;;14.77;54.37;98596.03;6274456;22;20337;-85
2022/03/31 02:06:25;;;;;;;21.77;9.82;;;;;;;15.37;55.23;98692.44;6273078;22;20060;-86
2022/03/31 02:08:50;;;;;;;23.23;10.45;;;;;;;14.66;55.50;98573.69;6274904;22;20048;-86
2022/03/31 02:11:16;;;;;;;24.90;11.02;;;;;;;14.76;55.62;98594.41;6274729;22;20074;-86
2022/03/31 02:13:41;;;;;;;26.83;11.50;;;;;;;14.67;55.67;98577.97;6273155;22;19995;-86
2022/03/31 02:16:06;;;;;;;22.35;10.07;;;;;;;15.16;55.79;98655.75;6273058;22;20153;-86
2022/03/31 02:18:32;;;;;;;29.75;11.65;;;;;;;15.06;56.07;98639.56;6274776;22;20398;-86
2022/03/31 02:20:57;;;;;;;26.08;10.82;;;;;;;14.58;56.01;98558.91;6274526;22;20429;-86
2022/03/31 02:23:23;;;;;;;17.55;10.13;;;;;;;14.73;56.30;98561.13;6274439;22;20030;-86
2022/03/31 02:25:48;;;;;;;22.38;10.73;;;;;;;15.24;56.49;98656.22;6272980;22;20430;-85
2022/03/31 02:28:14;;;;;;;26.42;10.85;;;;;;;14.06;56.41;98456.09;6272929;22;20007;-85
2022/03/31 02:30:40;;;;;;;26.13;11.45;;;;;;;14.85;56.68;98609.78;6273004;22;20050;-86
2022/03/31 02:33:05;;;;;;;22.42;10.90;;;;;;;14.46;56.65;98538.66;6272985;22;20003;-86
2022/03/31 02:35:31;;;;;;;23.42;11.55;;;;;;;14.84;56.87;98586.91;6274433;22;19995;-86
2022/03/31 02:37:57;;;;;;;23.80;10.48;;;;;;;15.06;56.95;98628.91;6274592;22;20461;-86
2022/03/31 02:40:22;;;;;;;30.90;11.43;;;;;;;14.43;57.27;98513.38;6272626;22;20015;-86
2022/03/31 02:42:48;;;;;;;22.65;11.25;;;;;;;15.06;57.41;98658.16;6274554;22;20395;-86
2022/03/31 02:45:14;;;;;;;20.95;10.10;;;;;;;15.17;57.71;98654.72;6274437;22;19996;-86
2022/03/31 02:47:40;;;;;;;25.40;11.23;;;;;;;14.09;57.37;98522.78;6272879;22;20003;-86
2022/03/31 02:50:07;;;;;;;28.13;11.00;;;;;;;15.09;57.56;98650.53;6275040;22;20102;-85
2022/03/31 02:55:25;;;;;;;25.20;10.27;;;;;;;14.84;57.45;98632.09;6276091;22;20034;-86
2022/03/31 02:57:52;;;;;;;22.98;10.25;;;;;;;15.11;57.71;98647.66;6274815;22;20118;-86
2022/03/31 03:00:19;;;;;;;24.23;10.93;;;;;;;14.73;57.66;98581.56;6274652;22;20008;-86
2022/03/31 03:02:44;;;;;;;31.15;11.75;;;;;;;15.23;57.99;98651.94;6274666;22;20019;-86
2022/03/31 03:05:11;;;;;;;20.73;10.25;;;;;;;14.90;57.59;98588.69;6274741;22;20010;-86
2022/03/31 03:07:36;;;;;;;25.30;11.25;;;;;;;14.86;57.88;98602.63;6274539;22;20004;-86
2022/03/31 03:10:02;;;;;;;24.15;11.40;;;;;;;14.20;58.24;98518.59;6276631;22;20078;-86
2022/03/31 03:12:27;;;;;;;29.73;12.15;;;;;;;14.65;57.99;98555.34;6274754;22;20010;-86
2022/03/31 03:14:53;;;;;;;24.38;10.57;;;;;;;13.65;58.46;98463.78;6276260;22;20000;-86
2022/03/31 03:17:18;;;;;;;27.95;11.70;;;;;;;14.97;58.65;98623.13;6276539;22;19999;-86
2022/03/31 03:19:44;;;;;;;31.98;11.65;;;;;;;14.37;58.73;98550.63;6274663;22;20004;-85
2022/03/31 03:22:09;;;;;;;23.85;11.07;;;;;;;14.33;58.89;98544.94;6274585;22;20000;-86
2022/03/31 03:24:35;;;;;;;22.63;10.98;;;;;;;14.63;58.61;98587.44;6276536;22;20004;-85
2022/03/31 03:27:01;;;;;;;27.63;12.40;;;;;;;15.18;58.56;98654.47;6274773;22;19999;-86
2022/03/31 03:29:27;;;;;;;25.45;11.02;;;;;;;14.32;58.64;98546.00;6274668;22;20323;-86
2022/03/31 03:31:52;;;;;;;27.55;11.80;;;;;;;14.60;58.84;98567.47;6276465;22;20024;-86
2022/03/31 03:34:18;;;;;;;29.77;12.55;;;;;;;14.82;59.08;98606.78;6274644;22;20003;-85
2022/03/31 03:36:44;;;;;;;30.60;11.98;;;;;;;14.90;58.62;98628.53;6274385;22;20433;-86
2022/03/31 03:39:11;;;;;;;28.00;12.35;;;;;;;14.77;59.02;98599.50;6274425;22;20022;-86
2022/03/31 03:41:37;;;;;;;29.92;11.27;;;;;;;14.81;58.81;98592.69;6274647;22;19996;-86
2022/03/31 03:44:03;;;;;;;28.30;11.88;;;;;;;14.72;58.81;98551.53;6276334;22;20019;-86
2022/03/31 03:46:30;;;;;;;26.13;12.18;;;;;;;14.54;58.48;98520.56;6275938;22;20000;-86
2022/03/31 03:48:55;;;;;;;29.85;11.00;;;;;;;15.29;58.28;98639.56;6275945;22;20432;-86
2022/03/31 03:51:23;;;;;;;33.25;12.63;;;;;;;15.15;58.50;98633.66;6275822;22;20019;-86
2022/03/31 03:53:48;;;;;;;28.13;13.02;;;;;;;15.03;58.60;98616.91;6274038;22;20019;-86
2022/03/31 03:56:16;;;;;;;28.40;11.40;;;;;;;14.83;57.94;98563.22;6274123;22;20409;-86
2022/03/31 03:58:41;;;;;;;31.25;11.88;;;;;;;14.74;58.39;98546.81;6275584;22;19995;-85
2022/03/31 04:01:08;;;;;;;25.92;12.00;;;;;;;14.88;58.55;98572.16;6275417;22;20019;-86
2022/03/31 04:03:33;;;;;;;29.08;13.25;;;;;;;14.65;58.62;98558.00;6273728;22;20003;-86
2022/03/31 04:05:59;;;;;;;29.88;11.82;;;;;;;14.60;58.74;98509.00;6274325;22;20060;-86
2022/03/31 04:08:24;;;;;;;29.55;12.18;;;;;;;14.71;59.12;98549.91;6274235;22;20046;-86
2022/03/31 04:10:50;;;;;;;34.63;12.60;;;;;;;14.36;58.71;98507.31;6275731;22;20489;-85
2022/03/31 04:13:15;;;;;;;27.80;12.75;;;;;;;14.45;58.86;98521.13;6275609;22;20396;-85
2022/03/31 04:15:41;;;;;;;26.70;12.13;;;;;;;14.79;58.44;98557.56;6275537;22;20027;-86
2022/03/31 04:18:08;;;;;;;25.88;11.98;;;;;;;14.80;58.83;98566.34;6274122;22;20053;-86
2022/03/31 04:20:34;;;;;;;32.42;12.00;;;;;;;14.84;58.94;98551.56;6273964;22;20047;-86
2022/03/31 04:22:59;;;;;;;30.25;12.07;;;;;;;15.30;58.83;98635.88;6275804;22;20000;-86
2022/03/31 04:25:25;;;;;;;32.08;11.55;;;;;;;14.62;58.67;98503.47;6274281;22;20158;-86
2022/03/31 04:27:50;;;;;;;29.73;12.27;;;;;;;14.67;58.71;98545.28;6275671;22;20007;-87
2022/03/31 04:30:20;;;;;;;32.47;11.50;;;;;;;14.26;58.53;98448.66;6275681;22;20002;-86
2022/03/31 04:32:47;;;;;;;26.90;11.88;;;;;;;15.40;58.65;98627.31;6274250;22;20034;-85
2022/03/31 04:35:13;;;;;;;31.10;12.10;;;;;;;15.04;58.98;98599.91;6275699;22;19995;-86
2022/03/31 04:37:39;;;;;;;29.58;13.30;;;;;;;14.97;58.83;98585.91;6275768;22;19992;-86
2022/03/31 04:40:06;;;;;;;39.35;14.65;;;;;;;15.13;59.12;98614.47;6273716;22;20031;-85
2022/03/31 04:42:32;;;;;;;38.25;12.18;;;;;;;14.71;59.10;98530.50;6275548;22;20437;-85
2022/03/31 04:44:57;;;;;;;30.17;11.57;;;;;;;15.11;59.08;98615.75;6273587;22;19992;-86
2022/03/31 04:47:23;;;;;;;31.20;12.23;;;;;;;14.66;59.10;98509.13;6275053;22;19999;-86
2022/03/31 04:49:49;;;;;;;36.47;12.70;;;;;;;15.32;59.25;98617.84;6273909;22;20007;-86
2022/03/31 04:52:14;;;;;;;36.75;12.25;;;;;;;14.64;59.53;98546.56;6275741;22;19996;-85
2022/03/31 04:54:43;;;;;;;33.88;11.80;;;;;;;14.80;59.62;98550.38;6275290;22;20334;-86
2022/03/31 04:57:13;;;;;;;27.20;11.55;;;;;;;15.21;59.42;98590.22;6275400;22;20021;-86
2022/03/31 04:59:38;;;;;;;30.38;11.90;;;;;;;14.62;59.25;98496.31;6273402;22;20000;-86
2022/03/31 05:02:04;;;;;;;29.65;12.57;;;;;;;15.42;59.39;98612.75;6275091;22;20077;-86
2022/03/31 05:04:30;;;;;;;29.45;11.35;;;;;;;14.76;59.04;98507.53;6273701;22;20078;-86
2022/03/31 05:06:56;;;;;;;31.45;11.48;;;;;;;14.13;58.84;98425.78;6275416;22;20019;-85
2022/03/31 05:09:22;;;;;;;34.80;11.75;;;;;;;14.97;58.96;98537.25;6275341;22;19992;-85
2022/03/31 05:11:47;;;;;;;33.58;12.02;;;;;;;15.19;58.78;98575.53;6275285;22;20000;-86
2022/03/31 05:14:13;;;;;;;35.00;11.35;;;;;;;15.22;58.11;98559.09;6275083;22;19999;-86
2022/03/31 05:16:38;;;;;;;32.53;12.00;;;;;;;15.17;58.26;98565.13;6275260;22;19996;-86
2022/03/31 05:19:04;;;;;;;28.58;11.57;;;;;;;15.07;58.10;98566.75;6274949;22;20010;-85
2022/03/31 05:21:29;;;;;;;22.60;10.85;;;;;;;15.75;57.84;98649.47;6275128;22;20008;-85
2022/03/31 05:23:55;;;;;;;32.40;11.32;;;;;;;15.70;57.71;98649.34;6275498;22;20000;-86
2022/03/31 05:26:20;;;;;;;34.28;12.82;;;;;;;15.95;57.87;98677.56;6275127;22;20003;-86
2022/03/31 05:28:45;;;;;;;28.60;10.75;;;;;;;15.21;57.53;98541.53;6272788;22;19999;-86
2022/03/31 05:31:11;;;;;;;28.70;11.07;;;;;;;15.43;57.74;98577.13;6274551;22;20007;-86
2022/03/31 05:33:36;;;;;;;35.17;12.23;;;;;;;15.78;57.36;98622.38;6272698;22;20075;-86
2022/03/31 05:36:02;;;;;;;32.25;11.88;;;;;;;15.86;56.95;98619.34;6273052;22;20010;-86
2022/03/31 05:38:28;;;;;;;31.75;12.93;;;;;;;15.77;57.22;98636.72;6272982;22;19987;-86
2022/03/31 05:40:53;;;;;;;28.08;10.88;;;;;;;16.05;57.04;98683.09;6272363;22;20015;-84
2022/03/31 05:43:21;;;;;;;31.63;11.18;;;;;;;15.18;56.86;98526.84;6272907;22;20437;-85
2022/03/31 05:45:47;;;;;;;29.33;11.73;;;;;;;16.06;56.94;98669.56;6273054;22;20006;-85
2022/03/31 05:48:13;;;;;;;29.02;12.02;;;;;;;15.55;56.73;98583.25;6272795;22;20010;-84
2022/03/31 05:50:38;;;;;;;27.85;11.75;;;;;;;16.05;56.85;98656.47;6272828;22;19991;-84
2022/03/31 05:53:04;;;;;;;30.30;11.18;;;;;;;15.37;57.25;98569.28;6272251;22;20078;-84
2022/03/31 05:55:30;;;;;;;26.10;11.45;;;;;;;15.81;57.29;98627.22;6274587;22;20006;-86
2022/03/31 05:57:56;;;;;;;28.95;10.73;;;;;;;15.73;56.93;98605.50;6273406;22;20003;-85
2022/03/31 06:00:22;;;;;;;25.75;11.55;;;;;;;15.18;57.30;98524.19;6274426;22;20000;-85
2022/03/31 06:02:48;;;;;;;31.17;12.30;;;;;;;16.01;57.24;98650.00;6272520;22;20047;-86
2022/03/31 06:05:15;;;;;;;33.78;11.45;;;;;;;15.41;57.25;98587.19;6272565;22;20438;-86
2022/03/31 06:07:41;;;;;;;27.13;12.20;;;;;;;15.99;57.18;98649.41;6272473;22;20071;-87
2022/03/31 06:10:07;;;;;;;32.58;10.98;;;;;;;15.39;57.44;98581.28;6274230;22;20022;-88
2022/03/31 06:12:33;;;;;;;28.23;11.95;;;;;;;15.94;57.34;98652.78;6272856;22;20000;-87
2022/03/31 06:14:58;;;;;;;22.35;9.40;;;;;;;15.11;57.38;98562.56;6272556;22;20003;-86
2022/03/31 06:17:24;;;;;;;36.17;12.05;;;;;;;15.88;57.25;98685.66;6298478;22;20061;-86
2022/03/31 06:19:52;;;;;;;33.55;11.90;;;;;;;15.34;57.17;98573.19;6272341;22;20522;-87
2022/03/31 06:22:18;;;;;;;26.15;11.88;;;;;;;15.21;57.07;98582.22;6274252;22;20056;-85
2022/03/31 06:24:43;;;;;;;32.40;11.52;;;;;;;15.85;56.96;98651.53;6274342;22;20000;-86
2022/03/31 06:27:09;;;;;;;28.20;10.25;;;;;;;15.14;56.29;98541.66;6270981;22;20470;-86
2022/03/31 06:29:35;;;;;;;27.40;10.85;;;;;;;16.06;56.42;98682.06;6272711;22;20000;-87
2022/03/31 06:32:02;;;;;;;30.63;10.98;;;;;;;15.36;56.36;98591.59;6270740;22;20006;-86
2022/03/31 06:34:27;;;;;;;26.60;10.25;;;;;;;16.04;56.61;98702.78;6272906;22;20019;-86
2022/03/31 06:36:54;;;;;;;27.33;10.63;;;;;;;15.86;56.73;98687.75;6272782;22;20455;-87
2022/03/31 06:39:20;;;;;;;26.95;10.20;;;;;;;15.05;56.53;98561.66;6271002;22;20526;-86
2022/03/31 06:41:46;;;;;;;25.55;10.45;;;;;;;15.48;56.49;98605.69;6269398;22;20007;-86
2022/03/31 06:44:13;;;;;;;33.58;10.95;;;;;;;15.70;56.66;98652.00;6270532;22;20241;-86
2022/03/31 06:46:40;;;;;;;28.45;10.15;;;;;;;15.87;56.43;98674.22;6271666;22;20445;-86
2022/03/31 06:49:06;;;;;;;26.23;10.52;;;;;;;15.28;56.34;98590.09;6270354;22;19999;-87
2022/03/31 06:51:32;;;;;;;26.85;10.15;;;;;;;15.36;56.48;98605.69;6273726;22;20712;-88
2022/03/31 06:53:59;;;;;;;24.63;10.50;;;;;;;15.46;55.84;98583.84;6272584;22;20079;-87
2022/03/31 06:56:27;;;;;;;26.55;8.18;;;;;;;16.13;56.29;98709.38;6272225;22;20000;-89
2022/03/31 06:58:57;;;;;;;26.08;9.38;;;;;;;15.35;55.72;98584.66;6270219;22;20078;-87
2022/03/31 07:01:22;;;;;;;29.98;10.55;;;;;;;15.31;55.87;98596.78;6268634;22;20019;-87
2022/03/31 07:03:48;;;;;;;28.15;8.98;;;;;;;15.91;55.90;98690.53;6297259;22;20018;-87
2022/03/31 07:06:14;;;;;;;24.15;7.85;;;;;;;15.40;55.87;98614.84;6271774;22;20000;-86
2022/03/31 07:08:39;;;;;;;24.33;9.20;;;;;;;15.94;56.18;98676.75;6297174;22;20452;-86
2022/03/31 07:11:06;;;;;;;27.90;10.68;;;;;;;15.41;56.52;98597.03;6273544;22;19996;-87
2022/03/31 07:13:32;;;;;;;23.77;9.25;;;;;;;15.43;56.50;98611.72;6278165;22;20000;-87
2022/03/31 07:15:57;;;;;;;29.65;10.25;;;;;;;15.52;56.96;98620.97;6292447;22;20071;-86
2022/03/31 07:18:23;;;;;;;23.45;9.50;;;;;;;15.54;56.88;98620.72;6290697;22;19996;-88
2022/03/31 07:20:50;;;;;;;27.35;11.00;;;;;;;15.96;56.62;98687.97;6290931;22;20027;-87
2022/03/31 07:23:18;;;;;;;27.23;9.13;;;;;;;16.17;57.41;98735.28;6303596;22;20004;-87
2022/03/31 07:25:43;;;;;;;27.38;9.88;;;;;;;15.93;57.15;98720.38;6273034;22;19995;-88
2022/03/31 07:28:09;;;;;;;29.52;10.40;;;;;;;15.75;57.74;98656.63;6271603;22;20085;-87
2022/03/31 07:30:34;;;;;;;24.00;9.23;;;;;;;15.56;57.76;98613.31;6271773;22;20425;-87
2022/03/31 07:33:03;;;;;;;31.40;10.30;;;;;;;16.25;58.09;98728.00;6272226;22;20057;-87
2022/03/31 07:35:31;;;;;;;21.15;8.55;;;;;;;16.21;57.97;98733.78;6270480;22;20010;-86
2022/03/31 07:37:58;;;;;;;20.38;9.30;;;;;;;16.22;58.16;98739.91;6271539;22;20053;-87
2022/03/31 07:40:26;;;;;;;20.25;8.40;;;;;;;15.77;58.26;98659.88;6273885;22;20007;-87
2022/03/31 07:42:52;;;;;;;27.75;10.57;;;;;;;16.35;58.05;98758.34;6274696;22;20003;-87
2022/03/31 07:45:19;;;;;;;28.58;8.73;;;;;;;16.50;57.49;98753.34;6273822;22;20082;-87
2022/03/31 07:47:45;;;;;;;23.83;8.63;;;;;;;14.86;57.57;98512.25;6272674;22;20400;-85
2022/03/31 07:50:13;;;;;;;29.77;10.48;;;;;;;16.09;57.58;98685.06;6272503;22;20023;-85
2022/03/31 07:52:39;;;;;;;26.17;8.30;;;;;;;16.85;57.06;98773.78;6274181;22;20294;-86
2022/03/31 07:55:07;;;;;;;24.88;9.35;;;;;;;16.56;56.54;98692.13;6274167;22;20010;-86
2022/03/31 07:57:33;;;;;;;25.65;8.57;;;;;;;16.71;56.11;98700.47;6274451;22;19999;-86
2022/03/31 07:59:59;;;;;;;34.90;10.05;;;;;;;17.22;55.21;98757.41;6272006;22;20468;-86
2022/03/31 08:02:25;;;;;;;24.58;8.60;;;;;;;17.00;54.64;98742.06;6273478;22;20019;-85
2022/03/31 08:04:51;;;;;;;31.48;10.48;;;;;;;17.25;54.25;98757.72;6275746;22;20078;-85
2022/03/31 08:07:17;;;;;;;39.90;11.55;;;;;;;17.32;54.05;98744.25;6275706;22;19995;-85
2022/03/31 08:09:43;;;;;;;32.70;9.60;;;;;;;17.69;53.18;98758.75;6274365;22;20003;-85
2022/03/31 08:12:10;;;;;;;31.75;9.95;;;;;;;17.51;52.30;98700.25;6272550;22;20056;-85
2022/03/31 08:14:36;;;;;;;29.42;9.18;;;;;;;17.56;51.13;98728.88;6273056;22;19996;-85
2022/03/31 08:17:02;;;;;;;34.35;9.70;;;;;;;17.30;51.00;98660.97;6275250;22;20022;-86
2022/03/31 08:19:30;;;;;;;29.25;9.70;;;;;;;17.53;50.93;98668.78;6273394;22;20003;-86
2022/03/31 08:21:57;;;;;;;44.05;9.90;;;;;;;17.71;50.52;98721.94;6274975;22;20006;-86
2022/03/31 08:24:23;;;;;;;32.78;9.70;;;;;;;17.42;50.19;98665.16;6273703;22;19995;-85
2022/03/31 08:26:50;;;;;;;31.85;9.90;;;;;;;17.45;50.00;98653.19;6275323;22;20460;-86
2022/03/31 08:29:16;;;;;;;35.00;10.18;;;;;;;17.60;49.96;98677.44;6273190;22;19995;-87
2022/03/31 08:31:43;;;;;;;29.15;8.77;;;;;;;18.06;49.71;98724.34;6274645;22;19999;-85
2022/03/31 08:34:08;;;;;;;33.20;10.02;;;;;;;18.20;49.53;98762.22;6272273;22;20002;-87
2022/03/31 08:36:34;;;;;;;32.47;9.65;;;;;;;17.67;49.63;98691.47;6272372;22;20007;-87
2022/03/31 08:39:01;;;;;;;31.42;9.23;;;;;;;18.17;50.07;98767.25;6273304;22;20034;-86
2022/03/31 08:41:28;;;;;;;38.90;10.38;;;;;;;18.10;50.41;98744.19;6272629;22;20000;-87
2022/03/31 08:43:54;;;;;;;29.95;10.20;;;;;;;17.86;50.36;98708.03;6272732;22;19996;-84
2022/03/31 08:46:21;;;;;;;33.50;10.68;;;;;;;16.84;49.99;98532.22;6273355;22;19996;-85
2022/03/31 08:48:46;;;;;;;37.53;10.45;;;;;;;18.12;50.00;98719.88;6272990;22;20000;-85
2022/03/31 08:51:12;;;;;;;34.97;9.20;;;;;;;17.53;50.31;98630.63;6274705;22;20097;-85
2022/03/31 08:53:38;;;;;;;36.55;10.43;;;;;;;17.96;50.50;98745.56;6273123;22;20000;-85
2022/03/31 08:56:04;;;;;;;28.27;9.60;;;;;;;17.83;50.88;98708.50;6273312;22;20024;-85
2022/03/31 08:58:30;;;;;;;29.15;9.32;;;;;;;17.57;51.58;98699.28;6274605;22;19995;-85
2022/03/31 09:00:56;;;;;;;38.72;10.55;;;;;;;17.99;51.12;98730.94;6271528;22;20093;-86
2022/03/31 09:03:33;;;;;;;36.58;10.82;;;;;;;17.98;51.30;98729.31;6274835;22;20460;-86
2022/03/31 09:05:59;;;;;;;35.33;9.93;;;;;;;17.61;51.64;98665.72;6271807;22;20076;-85
2022/03/31 09:08:24;;;;;;;36.22;9.38;;;;;;;17.27;51.58;98618.75;6272490;22;20019;-86
2022/03/31 09:10:53;;;;;;;39.60;9.73;;;;;;;18.04;51.52;98725.66;6274411;22;20147;-85
2022/03/31 09:13:31;;;;;;;32.28;10.32;;;;;;;18.06;51.49;98691.50;6273429;22;20000;-86
2022/03/31 09:16:06;;;;;;;37.78;13.45;;;;;;;17.89;51.57;98666.69;6275071;22;20000;-85
2022/03/31 09:18:34;;;;;;;34.10;10.85;;;;;;;18.19;51.58;98699.13;6273269;22;19996;-85
2022/03/31 09:21:02;;;;;;;30.90;9.90;;;;;;;18.21;51.75;98705.03;6272903;22;20082;-85
2022/03/31 09:23:43;;;;;;;43.47;10.63;;;;;;;18.08;52.09;98651.97;6272865;22;20401;-85
2022/03/31 09:26:14;;;;;;;40.25;12.07;;;;;;;18.37;51.73;98653.41;6271523;22;20487;-87
2022/03/31 09:28:41;;;;;;;34.78;10.27;;;;;;;18.26;51.77;98651.66;6271610;22;20068;-87
2022/03/31 09:31:10;;;;;;;37.15;10.38;;;;;;;17.71;51.95;98572.44;6272630;22;19991;-87
2022/03/31 09:33:41;;;;;;;38.17;9.98;;;;;;;17.68;52.07;98578.28;6271356;22;20019;-86
2022/03/31 09:36:15;;;;;;;37.05;12.05;;;;;;;17.80;52.22;98583.50;6272673;22;20062;-86
2022/03/31 09:38:52;;;;;;;39.03;12.23;;;;;;;17.67;52.32;98606.03;6271270;22;20022;-87
2022/03/31 09:41:19;;;;;;;36.15;10.48;;;;;;;17.98;51.89;98598.44;6271881;22;20407;-86
2022/03/31 09:43:46;;;;;;;36.08;11.30;;;;;;;18.34;52.27;98664.59;6272956;22;20011;-86
2022/03/31 09:46:23;;;;;;;38.03;9.88;;;;;;;18.42;52.06;98660.66;6272552;22;20000;-86
2022/03/31 09:48:50;;;;;;;28.27;10.45;;;;;;;18.34;52.62;98667.25;6271665;22;20086;-85
2022/03/31 09:51:18;;;;;;;29.48;10.07;;;;;;;17.81;52.19;98584.31;6272262;22;20035;-86
2022/03/31 09:53:46;;;;;;;44.35;12.48;;;;;;;18.08;52.61;98655.47;6269512;22;20007;-86
2022/03/31 09:56:15;;;;;;;38.38;10.95;;;;;;;17.33;52.11;98538.56;6272074;22;20002;-86
2022/03/31 09:58:45;;;;;;;33.95;9.43;;;;;;;18.05;51.55;98671.97;6271768;22;20090;-86
2022/03/31 10:01:10;;;;;;;36.08;10.02;;;;;;;18.36;51.85;98707.91;6269978;22;20149;-85
2022/03/31 10:03:38;;;;;;;37.15;9.80;;;;;;;18.40;51.88;98701.00;6272385;22;20053;-85
2022/03/31 10:06:04;;;;;;;31.90;9.80;;;;;;;18.45;51.58;98718.97;6271208;22;20004;-85
2022/03/31 10:08:34;;;;;;;32.92;10.43;;;;;;;18.31;51.81;98689.13;6270349;22;20015;-85
2022/03/31 10:11:00;;;;;;;42.83;10.50;;;;;;;17.97;51.17;98602.16;6271089;22;19996;-87
2022/03/31 10:13:31;;;;;;;45.00;10.95;;;;;;;18.75;51.14;98693.69;6271218;22;20024;-86
2022/03/31 10:16:03;;;;;;;34.47;10.17;;;;;;;18.88;50.67;98688.75;6271638;22;20004;-87
2022/03/31 10:18:28;;;;;;;38.60;9.93;;;;;;;18.00;50.55;98558.94;6270780;22;20227;-85
2022/03/31 10:20:57;;;;;;;39.47;10.48;;;;;;;18.55;50.59;98649.56;6271592;22;20011;-87
2022/03/31 10:26:07;;;;;;;37.72;10.15;;;;;;;18.98;50.22;98663.97;6273848;22;20010;-87
2022/03/31 10:28:32;;;;;;;39.13;10.88;;;;;;;18.54;49.91;98601.72;6274503;22;20030;-85
2022/03/31 10:31:09;;;;;;;35.20;10.73;;;;;;;19.02;49.91;98700.66;6273645;22;20002;-86
2022/03/31 10:33:42;;;;;;;31.80;9.82;;;;;;;19.15;49.78;98736.91;6298097;22;20004;-86
2022/03/31 10:36:12;;;;;;;34.75;10.35;;;;;;;18.99;50.26;98727.91;6271844;22;20399;-87
2022/03/31 10:38:57;;;;;;;28.17;10.02;;;;;;;18.29;50.28;98648.50;6272472;22;20006;-88
2022/03/31 10:41:31;;;;;;;39.28;11.02;;;;;;;18.75;50.50;98757.88;6271434;22;20004;-87
2022/03/31 10:43:58;;;;;;;39.72;11.52;;;;;;;17.86;50.71;98629.78;6271751;22;19996;-87
2022/03/31 10:46:25;;;;;;;37.00;10.95;;;;;;;18.64;50.72;98732.88;6273766;22;20073;-86
2022/03/31 10:48:52;;;;;;;43.63;9.98;;;;;;;18.53;50.84;98726.56;6272745;22;19999;-88
2022/03/31 10:51:17;;;;;;;46.35;11.98;;;;;;;18.08;50.97;98668.81;6273756;22;19991;-87
2022/03/31 10:53:49;;;;;;;28.85;10.57;;;;;;;18.42;50.97;98712.25;6273724;22;20000;-86
2022/03/31 10:56:26;;;;;;;25.38;9.13;;;;;;;18.37;50.93;98725.56;6273764;22;20026;-88
2022/03/31 10:58:54;;;;;;;35.78;10.13;;;;;;;18.33;51.18;98726.31;6271763;22;19995;-86
2022/03/31 11:01:22;;;;;;;26.90;9.68;;;;;;;17.47;51.66;98603.84;6272022;22;20025;-86
2022/03/31 11:03:52;;;;;;;30.45;9.52;;;;;;;18.22;51.60;98719.22;6272415;22;20015;-86
2022/03/31 11:06:18;;;;;;;33.47;9.45;;;;;;;17.51;51.81;98617.53;6272188;22;20034;-85
2022/03/31 11:08:46;;;;;;;27.55;7.75;;;;;;;17.85;52.69;98702.94;6272003;22;20019;-86
2022/03/31 11:11:20;;;;;;;22.92;8.07;;;;;;;18.08;52.36;98748.16;6272412;22;20079;-86
2022/03/31 11:13:46;;;;;;;26.75;8.07;;;;;;;17.84;52.55;98715.50;6272930;22;20011;-86
2022/03/31 11:16:14;;;;;;;28.92;8.20;;;;;;;17.22;53.08;98656.84;6273649;22;20057;-86
2022/03/31 11:18:39;;;;;;;23.98;8.13;;;;;;;16.89;53.16;98585.59;6274291;22;19996;-86
2022/03/31 11:21:05;;;;;;;26.20;8.00;;;;;;;17.24;53.02;98614.72;6273196;22;20517;-86
2022/03/31 11:23:31;;;;;;;26.73;8.20;;;;;;;17.72;53.61;98715.56;6273981;22;20306;-87